Time;durP1;ratioP1;P1;durP2;ratioP2;P2;SDS_P1;SDS_P2;PMS_P1;PMS_P2;Temp;Humidity;BMP_temperature;BMP_pressure;BME280_temperature;BME280_humidity;BME280_pressure;Samples;Min_cycle;Max_cycle;Signal;HPM_P1;HPM_P2
2021/06/12 00:02:09;;;;;;;17.27;4.50;;;;;;;16.83;61.60;100261.95;125855;1094;22947;-57
2021/06/12 00:04:40;;;;;;;13.25;4.05;;;;;;;16.81;61.68;100259.66;125778;1092;22803;-57
2021/06/12 00:07:10;;;;;;;12.70;4.60;;;;;;;16.76;61.60;100259.70;125736;1093;22856;-57
2021/06/12 00:09:41;;;;;;;12.20;4.65;;;;;;;16.73;61.76;100264.33;125732;1093;22776;-57
2021/06/12 00:12:13;;;;;;;12.85;4.25;;;;;;;16.76;61.73;100257.63;125767;1093;23725;-57
2021/06/12 00:14:45;;;;;;;15.50;5.07;;;;;;;16.75;61.85;100258.16;125773;1093;24439;-55
2021/06/12 00:17:16;;;;;;;16.40;5.35;;;;;;;16.69;61.63;100252.56;125748;1092;26353;-57
2021/06/12 00:19:46;;;;;;;15.27;5.03;;;;;;;16.68;61.64;100253.83;125736;1093;22803;-57
2021/06/12 00:22:17;;;;;;;15.50;5.75;;;;;;;16.66;61.66;100258.45;125736;1093;25935;-56
2021/06/12 00:24:51;;;;;;;13.50;5.65;;;;;;;16.61;62.24;100250.81;125733;1093;22780;-56
2021/06/12 00:27:24;;;;;;;13.77;5.97;;;;;;;16.59;62.15;100242.88;125715;1093;22777;-57
2021/06/12 00:29:55;;;;;;;18.30;6.40;;;;;;;16.59;62.20;100242.11;125766;1093;23684;-57
2021/06/12 00:32:27;;;;;;;16.97;6.40;;;;;;;16.52;62.43;100242.64;126129;1092;22751;-58
2021/06/12 00:34:58;;;;;;;15.40;6.20;;;;;;;16.44;62.58;100238.81;125689;1093;22822;-56
2021/06/12 00:37:30;;;;;;;16.80;6.05;;;;;;;16.38;62.29;100240.89;125954;1092;27128;-57
2021/06/12 00:40:01;;;;;;;17.90;6.20;;;;;;;16.36;62.93;100235.02;125677;1093;22764;-58
2021/06/12 00:42:33;;;;;;;13.63;5.67;;;;;;;16.33;62.57;100247.31;125931;1093;22769;-57
2021/06/12 00:45:05;;;;;;;17.00;6.00;;;;;;;16.29;63.11;100244.77;125829;1093;22853;-57
2021/06/12 00:47:37;;;;;;;16.63;6.10;;;;;;;16.20;63.20;100239.45;125773;1093;24440;-57
2021/06/12 00:50:12;;;;;;;17.85;6.00;;;;;;;16.11;63.32;100240.50;125881;1092;26277;-57
2021/06/12 00:52:44;;;;;;;14.80;5.60;;;;;;;16.04;64.26;100240.25;125849;1092;24191;-58
2021/06/12 00:55:16;;;;;;;19.65;6.45;;;;;;;15.95;64.34;100243.37;125717;1093;22752;-58
2021/06/12 00:57:47;;;;;;;21.25;7.45;;;;;;;15.89;64.41;100243.36;125734;1093;24474;-58
2021/06/12 01:00:21;;;;;;;19.90;6.55;;;;;;;15.85;64.47;100237.23;125702;1093;22776;-58
2021/06/12 01:02:52;;;;;;;19.43;6.97;;;;;;;15.81;64.53;100238.77;125770;1093;22831;-58
2021/06/12 01:05:24;;;;;;;21.53;7.00;;;;;;;15.81;64.13;100230.33;125798;1092;26516;-57
2021/06/12 01:07:55;;;;;;;23.10;6.33;;;;;;;15.80;64.81;100232.40;125820;1093;22752;-57
2021/06/12 01:10:27;;;;;;;29.20;7.20;;;;;;;15.74;65.06;100228.83;125905;1093;22803;-58
2021/06/12 01:13:13;;;;;;;32.85;7.65;;;;;;;15.70;65.00;100228.33;125863;1093;22831;-57
2021/06/12 01:15:54;;;;;;;28.35;6.80;;;;;;;15.67;65.52;100226.53;125809;1093;22809;-58
2021/06/12 01:18:31;;;;;;;22.65;6.90;;;;;;;15.66;65.26;100227.83;125723;1093;22803;-58
2021/06/12 01:21:13;;;;;;;28.33;7.20;;;;;;;15.64;65.65;100218.36;125720;1093;22876;-58
2021/06/12 01:24:15;;;;;;;28.20;7.60;;;;;;;15.63;65.85;100216.81;125774;1093;22791;-58
2021/06/12 01:27:00;;;;;;;26.10;6.95;;;;;;;15.63;65.28;100214.00;125705;1093;27201;-58
2021/06/12 01:29:42;;;;;;;22.65;6.80;;;;;;;15.65;66.04;100211.44;125848;1093;22856;-58
2021/06/12 01:32:15;;;;;;;30.15;7.30;;;;;;;15.60;66.06;100210.16;125846;1093;22777;-58
2021/06/12 01:34:49;;;;;;;21.35;7.65;;;;;;;15.56;65.84;100209.66;125784;1093;22809;-57
2021/06/12 01:37:21;;;;;;;23.77;6.83;;;;;;;15.52;66.43;100211.97;125967;1093;24482;-58
2021/06/12 01:39:54;;;;;;;22.75;6.55;;;;;;;15.50;66.52;100213.78;125703;1093;25324;-57
2021/06/12 01:42:26;;;;;;;25.15;7.15;;;;;;;15.49;66.72;100215.05;125694;1093;22776;-58
2021/06/12 01:44:59;;;;;;;21.27;6.63;;;;;;;15.46;66.63;100214.02;125724;1093;27734;-57
2021/06/12 01:47:31;;;;;;;20.87;6.30;;;;;;;15.44;67.19;100213.00;125734;1093;22777;-58
2021/06/12 01:50:04;;;;;;;19.97;6.57;;;;;;;15.44;66.59;100216.59;125853;1093;22847;-57
2021/06/12 01:52:37;;;;;;;21.23;6.97;;;;;;;15.43;66.67;100217.11;125717;1093;22811;-58
2021/06/12 01:55:12;;;;;;;23.67;6.30;;;;;;;15.40;67.17;100213.23;125704;1093;24584;-57
2021/06/12 01:57:44;;;;;;;25.00;6.85;;;;;;;15.38;67.34;100213.76;125776;1093;22826;-58
2021/06/12 02:00:16;;;;;;;19.45;6.50;;;;;;;15.37;67.32;100211.47;125753;1092;22806;-58
2021/06/12 02:02:49;;;;;;;17.70;6.30;;;;;;;15.39;66.90;100206.84;125801;1093;22851;-58
2021/06/12 02:05:23;;;;;;;16.55;6.40;;;;;;;15.39;67.09;100208.91;125671;1093;22774;-58
2021/06/12 02:07:58;;;;;;;21.00;6.40;;;;;;;15.35;67.16;100214.03;125755;1093;22803;-58
2021/06/12 02:10:32;;;;;;;21.00;6.90;;;;;;;15.31;68.06;100216.33;125703;1092;22787;-57
2021/06/12 02:13:03;;;;;;;21.15;6.85;;;;;;;15.20;68.47;100216.33;125756;1093;22777;-58
2021/06/12 02:15:37;;;;;;;17.55;7.30;;;;;;;15.13;68.52;100219.63;125694;1093;24598;-58
2021/06/12 02:18:11;;;;;;;17.40;6.60;;;;;;;15.08;68.66;100215.54;125852;1093;22800;-58
2021/06/12 02:20:43;;;;;;;17.57;7.80;;;;;;;15.08;68.45;100215.54;125751;1093;22776;-58
2021/06/12 02:23:14;;;;;;;17.55;7.00;;;;;;;15.10;68.76;100215.83;125732;1093;25862;-58
2021/06/12 02:25:47;;;;;;;16.97;6.77;;;;;;;15.10;69.13;100218.63;125835;1093;24597;-57
2021/06/12 02:28:20;;;;;;;20.75;7.05;;;;;;;15.10;68.86;100215.83;125780;1093;22825;-57
2021/06/12 02:30:56;;;;;;;16.40;7.25;;;;;;;15.12;68.97;100218.89;125702;1093;22783;-58
2021/06/12 02:33:29;;;;;;;14.90;6.15;;;;;;;15.13;69.07;100214.02;125828;1093;22941;-58
2021/06/12 02:36:03;;;;;;;15.80;6.17;;;;;;;15.13;68.63;100211.97;125794;1093;24605;-58
2021/06/12 02:38:34;;;;;;;18.70;6.50;;;;;;;15.16;68.47;100208.16;125877;1093;22776;-58
2021/06/12 02:41:05;;;;;;;15.17;6.07;;;;;;;15.18;68.83;100208.41;125840;1093;27720;-57
2021/06/12 02:43:36;;;;;;;15.33;7.10;;;;;;;15.20;68.71;100210.70;125752;1093;22832;-58
2021/06/12 02:46:13;;;;;;;20.65;7.60;;;;;;;15.21;69.00;100209.41;125900;1093;22809;-56
2021/06/12 02:48:46;;;;;;;21.65;8.85;;;;;;;15.22;68.84;100217.35;125699;1093;27235;-57
2021/06/12 02:51:17;;;;;;;19.35;7.50;;;;;;;15.24;69.69;100216.83;125698;1093;26226;-58
2021/06/12 02:53:49;;;;;;;18.70;7.00;;;;;;;15.22;69.02;100222.20;125664;1093;22807;-57
2021/06/12 02:56:23;;;;;;;14.00;6.60;;;;;;;15.23;68.86;100215.28;125884;1093;22814;-58
2021/06/12 02:59:00;;;;;;;18.37;6.53;;;;;;;15.25;68.60;100202.25;125868;1093;26718;-57
2021/06/12 03:01:32;;;;;;;16.47;6.77;;;;;;;15.28;68.76;100200.47;125690;1093;27674;-58
2021/06/12 03:04:06;;;;;;;21.45;8.80;;;;;;;15.30;68.83;100193.05;125672;1093;22805;-58
2021/06/12 03:06:40;;;;;;;20.80;7.85;;;;;;;15.31;68.72;100194.58;125828;1093;22803;-58
2021/06/12 03:09:17;;;;;;;17.55;8.25;;;;;;;15.32;68.93;100190.50;125741;1093;22802;-57
2021/06/12 03:11:50;;;;;;;16.10;7.10;;;;;;;15.34;68.44;100187.16;125861;1092;22927;-57
2021/06/12 03:14:24;;;;;;;21.40;7.75;;;;;;;15.36;69.09;100196.63;125747;1093;22804;-57
2021/06/12 03:16:56;;;;;;;20.65;8.30;;;;;;;15.36;69.41;100196.63;125753;1093;22938;-56
2021/06/12 03:19:28;;;;;;;25.50;9.10;;;;;;;15.34;69.50;100210.44;125745;1092;24440;-58
2021/06/12 03:22:00;;;;;;;16.50;8.50;;;;;;;15.28;70.17;100206.87;125762;1093;22781;-57
2021/06/12 03:24:33;;;;;;;18.70;8.10;;;;;;;15.22;69.47;100197.67;125721;1092;22833;-57
2021/06/12 03:27:04;;;;;;;19.75;8.30;;;;;;;15.20;69.67;100205.85;125679;1093;22779;-58
2021/06/12 03:29:36;;;;;;;18.43;7.90;;;;;;;15.19;70.21;100207.11;125825;1093;22811;-58
2021/06/12 03:32:08;;;;;;;21.27;8.93;;;;;;;15.17;70.23;100203.27;125763;1093;27494;-57
2021/06/12 03:34:40;;;;;;;16.85;7.80;;;;;;;15.15;69.87;100194.58;125712;1093;22777;-57
2021/06/12 03:37:11;;;;;;;17.95;7.70;;;;;;;15.16;69.64;100199.72;125693;1093;22929;-57
2021/06/12 03:39:45;;;;;;;18.10;7.90;;;;;;;15.19;69.68;100200.72;125806;1092;22774;-58
2021/06/12 03:42:18;;;;;;;18.65;8.60;;;;;;;15.21;69.68;100193.31;125789;1092;22816;-57
2021/06/12 03:44:52;;;;;;;19.40;7.55;;;;;;;15.24;69.31;100197.14;125801;1093;22790;-58
2021/06/12 03:47:25;;;;;;;15.50;7.35;;;;;;;15.26;69.34;100203.80;125689;1093;22784;-58
2021/06/12 03:49:56;;;;;;;16.70;7.77;;;;;;;15.33;69.40;100188.45;125683;1093;22789;-58
2021/06/12 03:52:30;;;;;;;19.25;10.10;;;;;;;15.38;70.26;100187.67;125663;1091;22780;-57
2021/06/12 03:55:02;;;;;;;17.93;8.73;;;;;;;15.41;69.68;100190.21;125843;1093;22806;-58
2021/06/12 03:57:35;;;;;;;18.50;9.40;;;;;;;15.47;70.07;100187.44;125852;1093;22777;-57
2021/06/12 04:00:09;;;;;;;18.85;9.90;;;;;;;15.52;69.98;100189.45;125837;1092;27188;-57
2021/06/12 04:02:40;;;;;;;16.50;8.20;;;;;;;15.58;69.53;100169.77;125880;1093;22831;-57
2021/06/12 04:05:11;;;;;;;18.97;10.10;;;;;;;15.65;70.32;100174.85;125834;1093;22822;-54
2021/06/12 04:07:42;;;;;;;17.20;8.00;;;;;;;15.71;70.48;100164.34;125896;1093;25854;-58
2021/06/12 04:10:14;;;;;;;19.70;9.00;;;;;;;15.78;70.39;100172.27;125722;1093;22924;-58
2021/06/12 04:12:45;;;;;;;18.60;9.00;;;;;;;15.84;70.64;100173.78;126152;1093;22768;-57
2021/06/12 04:15:16;;;;;;;19.75;10.15;;;;;;;15.93;70.72;100179.11;125763;1093;27221;-58
2021/06/12 04:17:50;;;;;;;17.77;9.60;;;;;;;15.98;70.51;100183.96;125876;1093;27597;-57
2021/06/12 04:20:21;;;;;;;20.00;10.50;;;;;;;16.06;71.42;100190.58;125820;1093;22800;-58
2021/06/12 04:22:52;;;;;;;21.75;11.10;;;;;;;16.13;71.16;100186.47;125753;1092;22758;-57
2021/06/12 04:25:23;;;;;;;18.05;10.35;;;;;;;16.22;70.87;100180.55;125709;1093;27331;-56
2021/06/12 04:27:54;;;;;;;18.27;9.57;;;;;;;16.32;71.42;100189.45;125729;1092;24200;-56
2021/06/12 04:30:26;;;;;;;21.50;10.70;;;;;;;16.39;71.67;100195.29;125894;1092;22751;-57
2021/06/12 04:32:57;;;;;;;18.60;9.45;;;;;;;16.47;71.59;100196.27;125911;1093;24440;-57
2021/06/12 04:35:28;;;;;;;18.03;9.30;;;;;;;16.56;71.69;100198.05;125632;1093;22911;-58
2021/06/12 04:38:00;;;;;;;17.60;9.85;;;;;;;16.66;71.72;100188.76;125766;1093;22780;-58
2021/06/12 04:40:33;;;;;;;19.10;10.40;;;;;;;16.76;71.57;100194.86;125777;1092;22803;-57
2021/06/12 04:43:06;;;;;;;22.10;10.25;;;;;;;16.86;72.08;100188.35;125817;1093;22764;-58
2021/06/12 04:45:36;;;;;;;19.00;10.30;;;;;;;16.96;71.86;100186.77;125729;1092;22809;-58
2021/06/12 04:48:09;;;;;;;18.30;9.95;;;;;;;17.07;72.03;100177.42;125767;1093;22783;-59
2021/06/12 04:50:42;;;;;;;22.07;10.23;;;;;;;17.18;72.04;100182.98;125918;1093;22776;-58
2021/06/12 04:53:13;;;;;;;16.30;9.80;;;;;;;17.29;71.87;100184.94;125768;1093;22807;-58
2021/06/12 04:55:44;;;;;;;19.75;10.70;;;;;;;17.38;71.51;100187.43;125715;1092;25858;-57
2021/06/12 04:58:15;;;;;;;22.60;10.80;;;;;;;17.49;71.81;100184.48;125736;1093;22826;-58
2021/06/12 05:00:48;;;;;;;18.00;10.65;;;;;;;17.59;71.35;100180.04;125804;1093;27293;-58
2021/06/12 05:03:20;;;;;;;23.85;10.35;;;;;;;17.70;71.25;100174.28;125717;1093;22783;-59
2021/06/12 05:05:51;;;;;;;19.23;9.87;;;;;;;17.81;71.70;100171.34;125707;1093;24190;-58
2021/06/12 05:08:22;;;;;;;19.85;10.50;;;;;;;17.93;71.36;100164.27;125788;1093;22806;-58
2021/06/12 05:10:53;;;;;;;19.30;10.40;;;;;;;18.03;71.16;100159.77;125725;1092;25855;-59
2021/06/12 05:13:24;;;;;;;20.25;10.20;;;;;;;18.17;70.91;100172.69;125792;1093;22806;-57
2021/06/12 05:15:55;;;;;;;16.30;8.75;;;;;;;18.34;71.10;100166.81;125745;1091;26602;-57
2021/06/12 05:18:32;;;;;;;19.60;9.40;;;;;;;18.48;70.55;100155.08;125706;1093;22803;-59
2021/06/12 05:21:03;;;;;;;17.90;9.90;;;;;;;18.65;70.28;100145.58;125552;1093;22758;-57
2021/06/12 05:23:37;;;;;;;17.15;8.70;;;;;;;18.80;69.87;100154.34;125663;1093;26392;-59
2021/06/12 05:26:08;;;;;;;13.50;7.30;;;;;;;18.95;69.92;100160.28;125737;1093;22853;-60
2021/06/12 05:28:39;;;;;;;17.40;8.50;;;;;;;19.07;69.14;100156.73;125786;1092;22804;-60
2021/06/12 05:31:11;;;;;;;13.80;7.20;;;;;;;19.13;69.12;100162.29;125746;1093;27747;-60
2021/06/12 05:33:42;;;;;;;15.45;6.45;;;;;;;19.21;69.09;100168.84;125722;1092;22803;-60
2021/06/12 05:36:13;;;;;;;19.80;7.90;;;;;;;19.27;69.20;100166.67;125604;1093;27715;-60
2021/06/12 05:38:44;;;;;;;18.70;7.85;;;;;;;19.29;68.87;100166.89;125765;1093;24177;-60
2021/06/12 05:41:15;;;;;;;14.60;7.83;;;;;;;19.29;68.69;100170.49;125638;1092;22835;-60
2021/06/12 05:43:46;;;;;;;18.23;7.57;;;;;;;19.32;68.54;100174.31;125839;1092;26711;-60
2021/06/12 05:46:17;;;;;;;16.30;7.40;;;;;;;19.33;68.33;100164.50;126036;1093;26991;-60
2021/06/12 05:48:48;;;;;;;16.07;6.33;;;;;;;19.34;68.77;100169.67;125674;1093;22803;-60
2021/06/12 05:51:20;;;;;;;14.50;7.40;;;;;;;19.39;68.80;100167.28;125694;1093;22773;-60
2021/06/12 05:53:51;;;;;;;14.30;7.90;;;;;;;19.43;68.47;100164.89;125757;1093;22814;-59
2021/06/12 05:56:24;;;;;;;14.50;6.95;;;;;;;19.48;68.25;100161.18;125685;1093;26406;-60
2021/06/12 05:58:55;;;;;;;11.60;5.65;;;;;;;19.53;68.06;100168.82;125791;1093;26267;-64
2021/06/12 06:01:26;;;;;;;17.10;7.00;;;;;;;19.58;68.05;100165.88;125810;1092;24440;-63
2021/06/12 06:03:57;;;;;;;14.50;5.70;;;;;;;19.65;67.99;100164.47;125658;1093;22758;-60
2021/06/12 06:06:28;;;;;;;13.05;4.90;;;;;;;19.73;67.45;100149.11;125841;1093;22856;-60
2021/06/12 06:08:59;;;;;;;13.60;4.57;;;;;;;19.82;67.16;100145.83;125750;1093;22793;-56
2021/06/12 06:11:31;;;;;;;10.30;4.23;;;;;;;19.95;67.00;100148.66;125722;1093;27205;-58
2021/06/12 06:14:02;;;;;;;9.40;3.80;;;;;;;20.09;66.23;100146.59;125797;1093;22803;-57
2021/06/12 06:16:33;;;;;;;9.50;4.10;;;;;;;20.31;66.13;100151.02;125617;1092;22809;-58
2021/06/12 06:19:04;;;;;;;11.78;3.53;;;;;;;20.48;65.32;100155.03;125921;1093;22823;-58
2021/06/12 06:21:35;;;;;;;6.95;3.15;;;;;;;20.60;64.58;100153.45;125452;1093;27163;-58
2021/06/12 06:24:08;;;;;;;9.25;3.03;;;;;;;20.67;64.28;100152.02;125619;1093;26018;-58
2021/06/12 06:26:39;;;;;;;11.23;2.43;;;;;;;20.69;63.45;100152.97;125770;1093;26715;-58
2021/06/12 06:29:10;;;;;;;12.00;2.73;;;;;;;20.70;63.32;100150.89;125869;1093;22937;-57
2021/06/12 06:31:42;;;;;;;7.87;2.60;;;;;;;20.70;63.12;100159.41;125631;1093;27194;-57
2021/06/12 06:34:14;;;;;;;7.95;2.75;;;;;;;20.70;62.85;100153.73;125670;1093;25668;-58
2021/06/12 06:36:44;;;;;;;9.93;3.37;;;;;;;20.71;62.72;100156.02;125577;1092;25833;-58
2021/06/12 06:39:15;;;;;;;10.00;2.83;;;;;;;20.75;62.96;100162.11;125679;1093;22810;-58
2021/06/12 06:41:46;;;;;;;5.88;2.30;;;;;;;20.81;62.81;100164.83;125606;1093;25476;-59
2021/06/12 06:44:17;;;;;;;12.23;2.78;;;;;;;20.89;62.80;100152.24;125683;1093;22857;-58
2021/06/12 06:46:48;;;;;;;10.25;3.00;;;;;;;20.99;61.98;100146.84;125704;1093;26274;-59
2021/06/12 06:49:19;;;;;;;5.53;1.93;;;;;;;21.10;62.24;100140.92;125678;1093;22800;-59
2021/06/12 06:51:50;;;;;;;7.90;2.20;;;;;;;21.24;61.99;100141.59;125662;1093;22831;-58
2021/06/12 06:54:21;;;;;;;7.25;2.13;;;;;;;21.38;61.71;100140.95;125585;1092;22806;-59
2021/06/12 06:56:55;;;;;;;8.43;2.28;;;;;;;21.53;61.51;100126.86;125606;1093;22765;-59
2021/06/12 06:59:26;;;;;;;6.80;2.28;;;;;;;21.60;60.51;100131.81;125731;1093;25373;-58
2021/06/12 07:01:57;;;;;;;7.15;2.58;;;;;;;21.66;60.57;100121.05;125591;1093;27166;-58
2021/06/12 07:04:28;;;;;;;6.18;2.53;;;;;;;21.75;60.28;100129.07;125687;1093;22780;-59
2021/06/12 07:06:59;;;;;;;9.13;2.43;;;;;;;21.85;60.01;100132.17;125780;1093;22800;-59
2021/06/12 07:09:30;;;;;;;7.13;2.30;;;;;;;21.96;59.93;100133.94;125890;1093;22800;-58
2021/06/12 07:12:02;;;;;;;9.65;2.60;;;;;;;22.06;59.70;100127.17;125704;1093;25580;-57
2021/06/12 07:14:34;;;;;;;11.45;2.88;;;;;;;22.19;59.79;100115.67;125783;1092;22806;-59
2021/06/12 07:17:06;;;;;;;8.03;2.20;;;;;;;22.31;59.84;100113.23;125563;1093;26209;-58
2021/06/12 07:19:39;;;;;;;9.30;2.30;;;;;;;22.43;59.47;100105.87;125825;1093;27299;-59
2021/06/12 07:22:11;;;;;;;8.13;2.40;;;;;;;22.53;58.82;100109.71;125797;1092;22856;-60
2021/06/12 07:24:44;;;;;;;8.28;2.23;;;;;;;22.61;58.96;100113.36;125692;1092;26260;-59
2021/06/12 07:27:16;;;;;;;8.98;2.40;;;;;;;22.68;58.28;100109.75;125573;1093;22814;-60
2021/06/12 07:29:47;;;;;;;9.53;2.40;;;;;;;22.80;58.18;100101.63;125760;1093;22803;-60
2021/06/12 07:32:18;;;;;;;12.50;2.18;;;;;;;22.88;57.47;100088.16;125625;1093;28702;-59
2021/06/12 07:34:49;;;;;;;6.90;1.83;;;;;;;22.91;57.56;100087.00;125615;1093;25858;-59
2021/06/12 07:37:20;;;;;;;7.90;1.73;;;;;;;22.99;57.81;100088.52;125321;1092;24478;-59
2021/06/12 07:39:52;;;;;;;10.65;1.95;;;;;;;23.12;57.39;100094.04;125598;1092;22773;-60
2021/06/12 07:42:26;;;;;;;5.98;2.00;;;;;;;23.23;57.44;100085.12;125996;1092;23296;-59
2021/06/12 07:44:57;;;;;;;8.00;2.00;;;;;;;23.30;56.50;100080.72;125648;1093;24447;-60
2021/06/12 07:47:28;;;;;;;6.88;2.10;;;;;;;23.38;57.01;100092.15;125551;1093;22806;-60
2021/06/12 07:49:59;;;;;;;8.88;2.00;;;;;;;23.42;56.74;100084.73;125501;1093;22798;-60
2021/06/12 07:52:30;;;;;;;7.35;2.28;;;;;;;23.50;55.91;100076.94;125554;1091;22793;-59
2021/06/12 07:55:01;;;;;;;9.07;2.10;;;;;;;23.59;55.99;100084.13;126240;1093;24446;-60
2021/06/12 07:57:32;;;;;;;7.10;1.73;;;;;;;23.70;56.00;100078.00;125978;1093;24194;-60
2021/06/12 08:00:03;;;;;;;7.15;1.93;;;;;;;23.77;55.50;100080.85;125719;1093;22807;-60
2021/06/12 08:02:36;;;;;;;7.93;2.53;;;;;;;23.81;55.13;100084.06;125569;1092;22780;-60
2021/06/12 08:05:10;;;;;;;8.65;2.30;;;;;;;23.86;55.45;100080.23;125538;1093;23232;-60
2021/06/12 08:07:41;;;;;;;8.13;2.03;;;;;;;23.94;55.43;100080.95;125772;1093;23160;-59
2021/06/12 08:10:13;;;;;;;9.53;2.13;;;;;;;24.05;54.65;100074.09;125638;1093;26519;-60
2021/06/12 08:12:45;;;;;;;6.68;2.73;;;;;;;24.13;54.75;100068.38;127239;1093;22701;-60
2021/06/12 08:15:17;;;;;;;6.50;2.03;;;;;;;24.27;54.71;100073.22;125624;1093;22759;-60
2021/06/12 08:17:48;;;;;;;7.00;2.30;;;;;;;24.42;54.35;100067.44;125808;1093;22821;-60
2021/06/12 08:20:18;;;;;;;5.53;1.70;;;;;;;24.61;53.88;100064.84;125567;1093;22757;-60
2021/06/12 08:22:50;;;;;;;6.55;2.08;;;;;;;24.79;53.87;100057.88;125609;1092;22773;-59
2021/06/12 08:25:21;;;;;;;8.13;1.73;;;;;;;24.90;53.78;100050.94;125788;1093;22803;-59
2021/06/12 08:27:52;;;;;;;11.03;2.10;;;;;;;24.88;52.78;100062.95;125540;1093;22949;-59
2021/06/12 08:30:24;;;;;;;7.88;1.93;;;;;;;24.81;52.19;100071.56;125593;1093;26995;-59
2021/06/12 08:32:55;;;;;;;10.43;1.90;;;;;;;24.67;51.60;100067.45;125963;1092;22803;-59
2021/06/12 08:35:25;;;;;;;9.45;1.68;;;;;;;24.55;51.57;100067.17;125668;1092;22803;-59
2021/06/12 08:37:57;;;;;;;7.53;1.70;;;;;;;24.47;51.57;100072.17;125778;1093;22835;-59
2021/06/12 08:40:29;;;;;;;6.13;1.68;;;;;;;24.41;51.24;100071.64;125567;1093;22774;-58
2021/06/12 08:43:00;;;;;;;7.18;1.60;;;;;;;24.41;51.28;100063.08;125556;1093;24475;-59
2021/06/12 08:45:31;;;;;;;6.05;1.40;;;;;;;24.47;51.34;100055.05;125692;1093;24443;-59
2021/06/12 08:48:04;;;;;;;6.50;1.80;;;;;;;24.58;50.63;100054.58;125824;1093;22796;-59
2021/06/12 08:50:34;;;;;;;7.55;1.45;;;;;;;24.69;50.16;100061.92;125740;1093;22787;-62
2021/06/12 08:53:07;;;;;;;4.88;1.60;;;;;;;24.75;50.16;100048.97;125614;1092;24597;-62
2021/06/12 08:55:37;;;;;;;5.13;1.30;;;;;;;24.79;49.82;100051.41;125530;1093;24447;-61
2021/06/12 08:58:12;;;;;;;6.13;1.70;;;;;;;24.84;49.98;100044.72;125555;1093;23219;-61
2021/06/12 09:00:44;;;;;;;6.95;1.43;;;;;;;24.95;50.30;100038.53;125703;1093;22777;-61
2021/06/12 09:03:20;;;;;;;4.53;1.40;;;;;;;25.07;49.57;100038.80;125582;1093;22797;-60
2021/06/12 09:05:55;;;;;;;6.68;1.30;;;;;;;25.16;49.07;100030.32;125751;1093;22781;-61
2021/06/12 09:08:29;;;;;;;4.83;1.20;;;;;;;25.29;48.69;100024.29;125830;1093;24050;-60
2021/06/12 09:11:05;;;;;;;4.00;1.10;;;;;;;25.44;48.61;100031.98;125678;1093;27188;-61
2021/06/12 09:13:47;;;;;;;3.90;1.10;;;;;;;25.59;48.43;100028.95;125625;1093;22785;-61
2021/06/12 09:16:33;;;;;;;4.38;1.03;;;;;;;25.72;47.65;100022.14;125635;1093;22781;-61
2021/06/12 09:19:08;;;;;;;10.50;1.13;;;;;;;25.85;47.08;100025.39;125711;1093;27744;-59
2021/06/12 09:21:40;;;;;;;4.70;0.88;;;;;;;26.04;46.58;100016.18;125594;1093;26280;-59
2021/06/12 09:24:25;;;;;;;10.18;1.25;;;;;;;26.13;46.82;100030.59;125523;1093;25829;-58
2021/06/12 09:26:58;;;;;;;2.45;0.70;;;;;;;26.20;45.66;100028.95;129859;1093;23285;-59
2021/06/12 09:29:37;;;;;;;3.75;0.80;;;;;;;26.18;45.73;100018.10;129882;1093;22505;-59
2021/06/12 09:32:19;;;;;;;7.63;0.95;;;;;;;26.21;44.90;100016.92;129900;1092;22532;-59
2021/06/12 09:34:51;;;;;;;3.05;0.90;;;;;;;26.23;44.75;100025.67;129870;1093;22573;-59
2021/06/12 09:37:25;;;;;;;4.13;0.88;;;;;;;26.23;44.93;100022.05;128054;1093;22800;-59
2021/06/12 09:40:02;;;;;;;5.13;1.10;;;;;;;26.25;44.62;100028.70;125920;1093;22807;-59
2021/06/12 09:42:47;;;;;;;2.47;0.80;;;;;;;26.28;44.55;100009.56;125883;1093;22980;-59
2021/06/12 09:45:21;;;;;;;3.75;0.80;;;;;;;26.27;43.80;100010.92;125685;1092;22776;-59
2021/06/12 09:48:06;;;;;;;4.88;1.00;;;;;;;26.25;44.71;100007.91;125366;1093;25855;-59
2021/06/12 09:50:37;;;;;;;3.78;0.90;;;;;;;26.31;44.55;100005.52;125620;1093;22777;-59
2021/06/12 09:53:17;;;;;;;5.83;1.00;;;;;;;26.39;44.56;100003.30;125667;1092;28804;-58
2021/06/12 09:55:49;;;;;;;4.10;0.90;;;;;;;26.52;44.18;99993.56;125772;1093;27195;-59
2021/06/12 09:58:28;;;;;;;4.75;0.88;;;;;;;26.54;44.00;100002.30;125748;1093;22842;-58
2021/06/12 10:01:09;;;;;;;4.33;0.88;;;;;;;26.62;44.60;99985.75;125552;1093;24440;-59
2021/06/12 10:03:40;;;;;;;4.63;1.08;;;;;;;26.71;43.61;99996.50;125627;1093;22800;-59
2021/06/12 10:06:17;;;;;;;4.73;1.00;;;;;;;26.68;43.18;99992.72;125638;1093;22775;-59
2021/06/12 10:08:49;;;;;;;4.65;0.65;;;;;;;26.71;43.32;99987.91;125770;1093;27654;-60
2021/06/12 10:11:26;;;;;;;3.85;0.80;;;;;;;26.70;42.70;99986.38;125634;1093;22783;-60
2021/06/12 10:13:57;;;;;;;6.10;0.90;;;;;;;26.66;42.15;99983.20;125560;1092;22797;-60
2021/06/12 10:16:30;;;;;;;3.88;0.83;;;;;;;26.55;42.56;99964.48;125677;1093;22827;-60
2021/06/12 10:19:04;;;;;;;4.48;1.00;;;;;;;26.46;42.43;99965.95;125753;1093;22782;-58
2021/06/12 10:21:35;;;;;;;5.30;0.90;;;;;;;26.46;42.93;99962.36;125789;1092;22780;-56
2021/06/12 10:24:08;;;;;;;4.03;1.20;;;;;;;26.47;43.01;99969.58;125689;1091;24367;-58
2021/06/12 10:26:39;;;;;;;3.40;1.10;;;;;;;26.44;43.34;99965.06;125746;1093;22785;-59
2021/06/12 10:29:13;;;;;;;3.48;0.80;;;;;;;26.44;43.32;99959.34;125680;1093;22774;-59
2021/06/12 10:31:45;;;;;;;6.48;1.00;;;;;;;26.42;42.86;99968.50;125500;1093;22790;-59
2021/06/12 10:34:16;;;;;;;3.60;1.00;;;;;;;26.33;43.29;99969.23;125675;1093;22923;-59
2021/06/12 10:37:07;;;;;;;4.63;1.20;;;;;;;26.17;43.24;99967.20;125790;1093;26239;-59
2021/06/12 10:39:40;;;;;;;2.38;0.85;;;;;;;26.04;43.48;99971.17;125820;1093;26371;-59
2021/06/12 10:42:18;;;;;;;5.80;1.00;;;;;;;25.90;43.31;99963.56;125747;1093;26238;-59
2021/06/12 10:44:51;;;;;;;2.78;0.90;;;;;;;25.80;43.72;99957.03;125642;1093;22779;-60
2021/06/12 10:47:39;;;;;;;4.10;0.85;;;;;;;25.71;43.83;99969.14;125885;1092;22861;-59
2021/06/12 10:50:32;;;;;;;6.40;1.00;;;;;;;25.56;44.12;99968.00;125859;1093;22963;-59
2021/06/12 10:53:33;;;;;;;7.75;1.15;;;;;;;25.46;44.39;99972.89;125794;1092;23225;-59
2021/06/12 10:56:06;;;;;;;6.30;1.20;;;;;;;25.32;44.69;99973.79;125607;1093;22774;-59
2021/06/12 10:58:46;;;;;;;4.73;1.00;;;;;;;25.21;44.89;99982.85;125577;1092;25854;-59
2021/06/12 11:01:19;;;;;;;3.58;1.00;;;;;;;25.00;45.07;99979.64;125617;1092;22850;-59
2021/06/12 11:04:05;;;;;;;4.20;1.00;;;;;;;24.83;45.56;100020.34;125762;1093;27194;-59
2021/06/12 11:06:46;;;;;;;9.98;1.50;;;;;;;24.31;48.81;100056.48;125705;1093;27182;-58
2021/06/12 11:09:40;;;;;;;14.93;2.28;;;;;;;23.56;54.27;100076.72;125731;1093;22761;-63
2021/06/12 11:12:34;;;;;;;14.25;2.03;;;;;;;22.44;54.76;100073.27;125640;1092;24896;-62
2021/06/12 11:15:16;;;;;;;5.40;0.80;;;;;;;21.77;53.66;100040.41;125633;1093;26715;-65
2021/06/12 11:18:07;;;;;;;7.60;0.90;;;;;;;21.39;54.32;100019.60;125876;1093;27481;-61
2021/06/12 11:20:42;;;;;;;6.18;0.80;;;;;;;21.24;55.60;100014.59;125679;1093;22788;-61
2021/06/12 11:23:20;;;;;;;5.25;0.80;;;;;;;21.00;56.43;100017.83;125591;1093;26509;-62
2021/06/12 11:25:59;;;;;;;5.83;0.75;;;;;;;20.66;57.19;100017.92;125778;1093;22776;-61
2021/06/12 11:28:36;;;;;;;8.93;1.10;;;;;;;20.36;58.85;100011.97;125863;1093;22803;-61
2021/06/12 11:31:35;;;;;;;6.95;1.20;;;;;;;20.16;59.86;100013.45;125776;1093;22881;-60
2021/06/12 11:34:28;;;;;;;7.13;1.20;;;;;;;20.00;61.06;100020.28;125736;1092;23637;-59
2021/06/12 11:37:20;;;;;;;6.37;1.27;;;;;;;19.81;62.42;100036.67;125643;1093;26233;-59
2021/06/12 11:39:54;;;;;;;4.07;1.00;;;;;;;19.59;64.72;100053.38;125618;1093;22774;-61
2021/06/12 11:42:41;;;;;;;3.68;0.93;;;;;;;19.25;66.22;100070.22;125652;1093;22758;-63